sensor_id;sensor_type;location;lat;lon;timestamp;P1;durP1;ratioP1;P2;durP2;ratioP2
11685;SDS011;5899;51.282;6.094;2023-05-07T00:00:35;9.65;;;7.70;;
11685;SDS011;5899;51.282;6.094;2023-05-07T00:03:07;8.75;;;7.45;;
11685;SDS011;5899;51.282;6.094;2023-05-07T00:05:40;7.93;;;6.87;;
11685;SDS011;5899;51.282;6.094;2023-05-07T00:08:06;7.95;;;7.22;;
11685;SDS011;5899;51.282;6.094;2023-05-07T00:10:40;8.10;;;7.30;;
11685;SDS011;5899;51.282;6.094;2023-05-07T00:13:09;7.63;;;7.00;;
11685;SDS011;5899;51.282;6.094;2023-05-07T00:15:41;8.77;;;7.67;;
11685;SDS011;5899;51.282;6.094;2023-05-07T00:18:13;8.73;;;7.60;;
11685;SDS011;5899;51.282;6.094;2023-05-07T00:20:47;9.70;;;8.13;;
11685;SDS011;5899;51.282;6.094;2023-05-07T00:23:47;9.13;;;8.23;;
11685;SDS011;5899;51.282;6.094;2023-05-07T00:32:18;9.02;;;8.00;;
11685;SDS011;5899;51.282;6.094;2023-05-07T00:38:04;8.65;;;7.85;;
11685;SDS011;5899;51.282;6.094;2023-05-07T00:40:38;8.95;;;8.15;;
11685;SDS011;5899;51.282;6.094;2023-05-07T00:43:10;9.82;;;8.43;;
11685;SDS011;5899;51.282;6.094;2023-05-07T00:45:40;9.00;;;8.10;;
11685;SDS011;5899;51.282;6.094;2023-05-07T00:48:09;11.98;;;8.95;;
11685;SDS011;5899;51.282;6.094;2023-05-07T00:53:26;9.85;;;8.18;;
11685;SDS011;5899;51.282;6.094;2023-05-07T00:55:53;10.43;;;9.32;;
11685;SDS011;5899;51.282;6.094;2023-05-07T01:04:23;9.70;;;8.77;;
11685;SDS011;5899;51.282;6.094;2023-05-07T01:08:19;9.75;;;8.13;;
11685;SDS011;5899;51.282;6.094;2023-05-07T01:31:24;10.88;;;8.90;;
11685;SDS011;5899;51.282;6.094;2023-05-07T01:34:02;10.60;;;9.10;;
11685;SDS011;5899;51.282;6.094;2023-05-07T01:40:01;11.43;;;8.93;;
11685;SDS011;5899;51.282;6.094;2023-05-07T01:42:54;9.93;;;8.93;;
11685;SDS011;5899;51.282;6.094;2023-05-07T02:03:41;9.88;;;8.85;;
11685;SDS011;5899;51.282;6.094;2023-05-07T02:06:07;10.18;;;9.18;;
11685;SDS011;5899;51.282;6.094;2023-05-07T02:08:34;10.57;;;9.47;;
11685;SDS011;5899;51.282;6.094;2023-05-07T02:11:01;13.10;;;9.73;;
11685;SDS011;5899;51.282;6.094;2023-05-07T02:13:28;13.00;;;9.05;;
11685;SDS011;5899;51.282;6.094;2023-05-07T02:15:56;10.80;;;9.70;;
11685;SDS011;5899;51.282;6.094;2023-05-07T02:18:25;9.73;;;8.70;;
11685;SDS011;5899;51.282;6.094;2023-05-07T02:20:53;9.45;;;8.25;;
11685;SDS011;5899;51.282;6.094;2023-05-07T02:23:20;10.17;;;9.17;;
11685;SDS011;5899;51.282;6.094;2023-05-07T02:25:46;9.82;;;8.82;;
11685;SDS011;5899;51.282;6.094;2023-05-07T02:28:16;10.30;;;9.20;;
11685;SDS011;5899;51.282;6.094;2023-05-07T02:30:42;9.10;;;8.23;;
11685;SDS011;5899;51.282;6.094;2023-05-07T02:33:09;10.18;;;8.52;;
11685;SDS011;5899;51.282;6.094;2023-05-07T02:35:37;11.68;;;9.40;;
11685;SDS011;5899;51.282;6.094;2023-05-07T02:38:08;9.88;;;8.60;;
11685;SDS011;5899;51.282;6.094;2023-05-07T02:40:37;9.07;;;8.18;;
11685;SDS011;5899;51.282;6.094;2023-05-07T02:43:05;10.23;;;8.70;;
11685;SDS011;5899;51.282;6.094;2023-05-07T02:45:33;10.20;;;8.05;;
11685;SDS011;5899;51.282;6.094;2023-05-07T02:48:01;9.43;;;8.13;;
11685;SDS011;5899;51.282;6.094;2023-05-07T02:50:30;10.20;;;9.13;;
11685;SDS011;5899;51.282;6.094;2023-05-07T02:52:59;9.13;;;8.23;;
11685;SDS011;5899;51.282;6.094;2023-05-07T02:55:30;9.07;;;8.20;;
11685;SDS011;5899;51.282;6.094;2023-05-07T02:57:56;10.13;;;7.85;;
11685;SDS011;5899;51.282;6.094;2023-05-07T03:00:23;9.52;;;8.55;;
11685;SDS011;5899;51.282;6.094;2023-05-07T03:02:51;9.63;;;8.63;;
11685;SDS011;5899;51.282;6.094;2023-05-07T03:05:21;9.82;;;8.60;;
11685;SDS011;5899;51.282;6.094;2023-05-07T03:07:50;10.23;;;8.45;;
11685;SDS011;5899;51.282;6.094;2023-05-07T03:10:18;11.50;;;8.77;;
11685;SDS011;5899;51.282;6.094;2023-05-07T03:12:54;10.63;;;9.18;;
11685;SDS011;5899;51.282;6.094;2023-05-07T03:15:21;10.23;;;8.52;;
11685;SDS011;5899;51.282;6.094;2023-05-07T03:17:51;9.63;;;8.43;;
11685;SDS011;5899;51.282;6.094;2023-05-07T03:20:19;8.80;;;7.80;;
11685;SDS011;5899;51.282;6.094;2023-05-07T03:22:45;8.63;;;7.72;;
11685;SDS011;5899;51.282;6.094;2023-05-07T03:25:12;9.80;;;7.40;;
11685;SDS011;5899;51.282;6.094;2023-05-07T03:27:40;8.60;;;7.70;;
11685;SDS011;5899;51.282;6.094;2023-05-07T03:30:10;8.75;;;7.85;;
11685;SDS011;5899;51.282;6.094;2023-05-07T03:32:37;8.48;;;7.57;;
11685;SDS011;5899;51.282;6.094;2023-05-07T03:35:07;9.45;;;8.35;;
11685;SDS011;5899;51.282;6.094;2023-05-07T03:37:33;9.35;;;8.18;;
11685;SDS011;5899;51.282;6.094;2023-05-07T03:40:02;9.07;;;7.67;;
11685;SDS011;5899;51.282;6.094;2023-05-07T03:42:29;9.15;;;8.23;;
11685;SDS011;5899;51.282;6.094;2023-05-07T03:44:56;9.68;;;7.57;;
11685;SDS011;5899;51.282;6.094;2023-05-07T03:47:25;9.20;;;8.10;;
11685;SDS011;5899;51.282;6.094;2023-05-07T03:49:53;8.93;;;7.95;;
11685;SDS011;5899;51.282;6.094;2023-05-07T03:52:20;9.52;;;7.70;;
11685;SDS011;5899;51.282;6.094;2023-05-07T03:54:50;8.88;;;7.95;;
11685;SDS011;5899;51.282;6.094;2023-05-07T03:57:20;8.80;;;7.90;;
11685;SDS011;5899;51.282;6.094;2023-05-07T03:59:48;8.65;;;7.60;;
11685;SDS011;5899;51.282;6.094;2023-05-07T04:02:15;8.53;;;7.53;;
11685;SDS011;5899;51.282;6.094;2023-05-07T04:04:43;8.82;;;7.13;;
11685;SDS011;5899;51.282;6.094;2023-05-07T04:07:11;8.65;;;7.78;;
11685;SDS011;5899;51.282;6.094;2023-05-07T04:09:40;8.00;;;6.83;;
11685;SDS011;5899;51.282;6.094;2023-05-07T04:12:06;9.30;;;7.45;;
11685;SDS011;5899;51.282;6.094;2023-05-07T04:14:33;8.23;;;6.78;;
11685;SDS011;5899;51.282;6.094;2023-05-07T04:17:00;7.57;;;6.88;;
11685;SDS011;5899;51.282;6.094;2023-05-07T04:19:27;7.50;;;6.70;;
11685;SDS011;5899;51.282;6.094;2023-05-07T04:21:55;7.03;;;6.40;;
11685;SDS011;5899;51.282;6.094;2023-05-07T04:24:24;7.75;;;6.20;;
11685;SDS011;5899;51.282;6.094;2023-05-07T04:26:51;7.50;;;6.37;;
11685;SDS011;5899;51.282;6.094;2023-05-07T04:29:22;7.82;;;6.90;;
11685;SDS011;5899;51.282;6.094;2023-05-07T04:31:49;7.40;;;6.57;;
11685;SDS011;5899;51.282;6.094;2023-05-07T04:34:15;8.27;;;6.20;;
11685;SDS011;5899;51.282;6.094;2023-05-07T04:36:42;7.07;;;6.10;;
11685;SDS011;5899;51.282;6.094;2023-05-07T04:39:10;8.75;;;6.47;;
11685;SDS011;5899;51.282;6.094;2023-05-07T04:41:37;7.30;;;6.55;;
11685;SDS011;5899;51.282;6.094;2023-05-07T04:44:06;7.47;;;6.38;;
11685;SDS011;5899;51.282;6.094;2023-05-07T04:46:34;7.13;;;6.33;;
11685;SDS011;5899;51.282;6.094;2023-05-07T04:49:03;7.15;;;6.45;;
11685;SDS011;5899;51.282;6.094;2023-05-07T04:51:30;10.13;;;6.43;;
11685;SDS011;5899;51.282;6.094;2023-05-07T04:53:57;6.22;;;5.60;;
11685;SDS011;5899;51.282;6.094;2023-05-07T04:56:26;7.25;;;5.53;;
11685;SDS011;5899;51.282;6.094;2023-05-07T04:58:53;6.55;;;5.80;;
11685;SDS011;5899;51.282;6.094;2023-05-07T05:01:23;7.87;;;5.47;;
11685;SDS011;5899;51.282;6.094;2023-05-07T05:03:51;6.33;;;5.73;;
11685;SDS011;5899;51.282;6.094;2023-05-07T05:06:18;6.53;;;5.88;;
11685;SDS011;5899;51.282;6.094;2023-05-07T05:08:44;6.82;;;6.18;;
11685;SDS011;5899;51.282;6.094;2023-05-07T05:11:11;7.70;;;5.97;;
11685;SDS011;5899;51.282;6.094;2023-05-07T05:13:41;6.13;;;5.53;;
11685;SDS011;5899;51.282;6.094;2023-05-07T05:16:08;8.45;;;5.80;;
11685;SDS011;5899;51.282;6.094;2023-05-07T05:18:34;7.17;;;6.47;;
11685;SDS011;5899;51.282;6.094;2023-05-07T05:21:01;7.25;;;6.45;;
11685;SDS011;5899;51.282;6.094;2023-05-07T05:23:28;7.97;;;6.10;;
11685;SDS011;5899;51.282;6.094;2023-05-07T05:25:55;9.60;;;6.40;;
11685;SDS011;5899;51.282;6.094;2023-05-07T05:28:21;8.23;;;6.23;;
11685;SDS011;5899;51.282;6.094;2023-05-07T05:30:50;6.43;;;5.80;;
11685;SDS011;5899;51.282;6.094;2023-05-07T05:33:18;7.03;;;6.07;;
11685;SDS011;5899;51.282;6.094;2023-05-07T05:35:45;6.82;;;6.13;;
11685;SDS011;5899;51.282;6.094;2023-05-07T05:38:13;7.85;;;6.80;;
11685;SDS011;5899;51.282;6.094;2023-05-07T05:40:40;7.07;;;5.80;;
11685;SDS011;5899;51.282;6.094;2023-05-07T05:43:09;7.87;;;5.40;;
11685;SDS011;5899;51.282;6.094;2023-05-07T05:45:37;6.50;;;5.50;;
11685;SDS011;5899;51.282;6.094;2023-05-07T05:48:05;6.75;;;5.10;;
11685;SDS011;5899;51.282;6.094;2023-05-07T05:50:31;6.85;;;5.63;;
11685;SDS011;5899;51.282;6.094;2023-05-07T05:53:00;7.60;;;5.65;;
11685;SDS011;5899;51.282;6.094;2023-05-07T05:55:27;7.33;;;5.83;;
11685;SDS011;5899;51.282;6.094;2023-05-07T05:57:54;7.40;;;5.93;;
11685;SDS011;5899;51.282;6.094;2023-05-07T06:00:22;8.13;;;5.88;;
11685;SDS011;5899;51.282;6.094;2023-05-07T06:02:51;7.10;;;5.72;;
11685;SDS011;5899;51.282;6.094;2023-05-07T06:05:19;6.63;;;5.38;;
11685;SDS011;5899;51.282;6.094;2023-05-07T06:07:48;5.80;;;5.20;;
11685;SDS011;5899;51.282;6.094;2023-05-07T06:10:14;8.00;;;6.07;;
11685;SDS011;5899;51.282;6.094;2023-05-07T06:12:41;6.60;;;5.35;;
11685;SDS011;5899;51.282;6.094;2023-05-07T06:15:08;6.82;;;5.63;;
11685;SDS011;5899;51.282;6.094;2023-05-07T06:17:45;10.45;;;5.80;;
11685;SDS011;5899;51.282;6.094;2023-05-07T06:20:12;6.13;;;5.53;;
11685;SDS011;5899;51.282;6.094;2023-05-07T06:22:44;6.78;;;6.07;;
11685;SDS011;5899;51.282;6.094;2023-05-07T06:25:11;7.40;;;5.60;;
11685;SDS011;5899;51.282;6.094;2023-05-07T06:27:37;6.80;;;5.55;;
11685;SDS011;5899;51.282;6.094;2023-05-07T06:30:09;5.78;;;5.18;;
11685;SDS011;5899;51.282;6.094;2023-05-07T06:32:39;6.45;;;5.40;;
11685;SDS011;5899;51.282;6.094;2023-05-07T06:35:06;6.00;;;5.40;;
11685;SDS011;5899;51.282;6.094;2023-05-07T06:37:35;6.43;;;5.10;;
11685;SDS011;5899;51.282;6.094;2023-05-07T06:40:24;6.43;;;5.43;;
11685;SDS011;5899;51.282;6.094;2023-05-07T06:42:50;6.35;;;5.28;;
11685;SDS011;5899;51.282;6.094;2023-05-07T06:45:17;6.75;;;5.18;;
11685;SDS011;5899;51.282;6.094;2023-05-07T06:47:44;6.60;;;5.53;;
11685;SDS011;5899;51.282;6.094;2023-05-07T06:50:10;6.47;;;5.63;;
11685;SDS011;5899;51.282;6.094;2023-05-07T06:52:41;7.03;;;5.05;;
11685;SDS011;5899;51.282;6.094;2023-05-07T06:55:09;6.30;;;5.00;;
11685;SDS011;5899;51.282;6.094;2023-05-07T06:57:37;5.68;;;4.60;;
11685;SDS011;5899;51.282;6.094;2023-05-07T07:00:05;5.28;;;4.38;;
11685;SDS011;5899;51.282;6.094;2023-05-07T07:02:35;5.25;;;4.63;;
11685;SDS011;5899;51.282;6.094;2023-05-07T07:05:02;5.10;;;4.50;;
11685;SDS011;5899;51.282;6.094;2023-05-07T07:07:33;5.32;;;4.80;;
11685;SDS011;5899;51.282;6.094;2023-05-07T07:10:00;6.10;;;4.63;;
11685;SDS011;5899;51.282;6.094;2023-05-07T07:12:31;5.13;;;4.40;;
11685;SDS011;5899;51.282;6.094;2023-05-07T07:14:58;5.90;;;4.88;;
11685;SDS011;5899;51.282;6.094;2023-05-07T07:17:25;5.70;;;5.03;;
11685;SDS011;5899;51.282;6.094;2023-05-07T07:19:52;6.50;;;4.57;;
11685;SDS011;5899;51.282;6.094;2023-05-07T07:22:18;5.00;;;4.50;;
11685;SDS011;5899;51.282;6.094;2023-05-07T07:24:47;4.60;;;4.13;;
11685;SDS011;5899;51.282;6.094;2023-05-07T07:27:16;6.18;;;4.40;;
11685;SDS011;5899;51.282;6.094;2023-05-07T07:29:44;6.20;;;4.47;;
11685;SDS011;5899;51.282;6.094;2023-05-07T07:32:10;6.25;;;4.40;;
11685;SDS011;5899;51.282;6.094;2023-05-07T07:34:37;4.00;;;3.60;;
11685;SDS011;5899;51.282;6.094;2023-05-07T07:37:03;5.57;;;4.28;;
11685;SDS011;5899;51.282;6.094;2023-05-07T07:39:31;4.50;;;3.97;;
11685;SDS011;5899;51.282;6.094;2023-05-07T07:42:00;4.25;;;3.78;;
11685;SDS011;5899;51.282;6.094;2023-05-07T07:44:28;4.57;;;3.42;;
11685;SDS011;5899;51.282;6.094;2023-05-07T07:46:57;4.70;;;4.00;;
11685;SDS011;5899;51.282;6.094;2023-05-07T07:49:24;4.65;;;4.05;;
11685;SDS011;5899;51.282;6.094;2023-05-07T07:51:50;4.33;;;3.77;;
11685;SDS011;5899;51.282;6.094;2023-05-07T07:54:24;4.57;;;4.18;;
11685;SDS011;5899;51.282;6.094;2023-05-07T07:56:53;6.03;;;4.00;;
11685;SDS011;5899;51.282;6.094;2023-05-07T07:59:21;3.97;;;3.60;;
11685;SDS011;5899;51.282;6.094;2023-05-07T08:01:48;5.88;;;4.45;;
11685;SDS011;5899;51.282;6.094;2023-05-07T08:04:16;5.03;;;4.28;;
11685;SDS011;5899;51.282;6.094;2023-05-07T08:06:51;4.03;;;3.63;;
11685;SDS011;5899;51.282;6.094;2023-05-07T08:09:27;3.70;;;3.40;;
11685;SDS011;5899;51.282;6.094;2023-05-07T08:11:54;3.60;;;3.30;;
11685;SDS011;5899;51.282;6.094;2023-05-07T08:14:20;3.58;;;3.28;;
11685;SDS011;5899;51.282;6.094;2023-05-07T08:16:50;3.53;;;3.22;;
11685;SDS011;5899;51.282;6.094;2023-05-07T08:19:19;4.00;;;3.17;;
11685;SDS011;5899;51.282;6.094;2023-05-07T08:21:48;3.65;;;3.35;;
11685;SDS011;5899;51.282;6.094;2023-05-07T08:24:19;6.75;;;3.45;;
11685;SDS011;5899;51.282;6.094;2023-05-07T08:26:48;3.58;;;3.28;;
11685;SDS011;5899;51.282;6.094;2023-05-07T08:29:19;4.65;;;3.58;;
11685;SDS011;5899;51.282;6.094;2023-05-07T08:31:48;3.58;;;3.00;;
11685;SDS011;5899;51.282;6.094;2023-05-07T08:34:18;3.38;;;2.90;;
11685;SDS011;5899;51.282;6.094;2023-05-07T08:36:47;3.42;;;3.13;;
11685;SDS011;5899;51.282;6.094;2023-05-07T08:39:15;3.50;;;2.90;;
11685;SDS011;5899;51.282;6.094;2023-05-07T08:41:44;3.43;;;2.93;;
11685;SDS011;5899;51.282;6.094;2023-05-07T08:44:11;4.13;;;2.85;;
11685;SDS011;5899;51.282;6.094;2023-05-07T08:46:40;3.45;;;2.70;;
11685;SDS011;5899;51.282;6.094;2023-05-07T08:49:08;3.05;;;2.75;;
11685;SDS011;5899;51.282;6.094;2023-05-07T08:51:39;2.83;;;2.53;;
11685;SDS011;5899;51.282;6.094;2023-05-07T08:54:06;2.95;;;2.75;;
11685;SDS011;5899;51.282;6.094;2023-05-07T08:56:34;4.60;;;3.20;;
11685;SDS011;5899;51.282;6.094;2023-05-07T08:59:04;3.33;;;2.40;;
11685;SDS011;5899;51.282;6.094;2023-05-07T09:01:30;2.87;;;2.67;;
11685;SDS011;5899;51.282;6.094;2023-05-07T09:03:59;3.85;;;3.00;;
11685;SDS011;5899;51.282;6.094;2023-05-07T09:06:28;3.95;;;2.65;;
11685;SDS011;5899;51.282;6.094;2023-05-07T09:11:59;4.40;;;2.63;;
11685;SDS011;5899;51.282;6.094;2023-05-07T09:14:27;2.97;;;2.45;;
11685;SDS011;5899;51.282;6.094;2023-05-07T09:16:56;3.00;;;2.22;;
11685;SDS011;5899;51.282;6.094;2023-05-07T09:19:29;4.22;;;2.72;;
11685;SDS011;5899;51.282;6.094;2023-05-07T09:22:06;3.05;;;2.33;;
11685;SDS011;5899;51.282;6.094;2023-05-07T09:24:34;3.45;;;2.40;;
11685;SDS011;5899;51.282;6.094;2023-05-07T09:27:04;2.55;;;2.33;;
11685;SDS011;5899;51.282;6.094;2023-05-07T09:29:31;3.03;;;2.15;;
11685;SDS011;5899;51.282;6.094;2023-05-07T09:32:00;3.07;;;2.17;;
11685;SDS011;5899;51.282;6.094;2023-05-07T09:34:27;3.03;;;2.20;;
11685;SDS011;5899;51.282;6.094;2023-05-07T09:36:58;3.33;;;2.28;;
11685;SDS011;5899;51.282;6.094;2023-05-07T09:39:38;3.67;;;2.10;;
11685;SDS011;5899;51.282;6.094;2023-05-07T09:42:07;2.45;;;2.17;;
11685;SDS011;5899;51.282;6.094;2023-05-07T09:44:40;3.95;;;2.45;;
11685;SDS011;5899;51.282;6.094;2023-05-07T09:47:07;2.40;;;2.20;;
11685;SDS011;5899;51.282;6.094;2023-05-07T09:49:35;3.43;;;2.10;;
11685;SDS011;5899;51.282;6.094;2023-05-07T09:52:02;2.72;;;2.08;;
11685;SDS011;5899;51.282;6.094;2023-05-07T09:54:33;3.70;;;2.40;;
11685;SDS011;5899;51.282;6.094;2023-05-07T09:57:00;4.07;;;2.53;;
11685;SDS011;5899;51.282;6.094;2023-05-07T09:59:31;2.85;;;2.35;;
11685;SDS011;5899;51.282;6.094;2023-05-07T10:01:59;3.13;;;2.20;;
11685;SDS011;5899;51.282;6.094;2023-05-07T10:04:26;2.30;;;2.10;;
11685;SDS011;5899;51.282;6.094;2023-05-07T10:06:53;2.42;;;2.22;;
11685;SDS011;5899;51.282;6.094;2023-05-07T10:09:24;2.10;;;1.90;;
11685;SDS011;5899;51.282;6.094;2023-05-07T10:12:04;2.85;;;1.75;;
11685;SDS011;5899;51.282;6.094;2023-05-07T10:14:42;2.15;;;1.92;;
11685;SDS011;5899;51.282;6.094;2023-05-07T10:17:16;2.45;;;2.10;;
11685;SDS011;5899;51.282;6.094;2023-05-07T10:19:45;3.20;;;2.10;;
11685;SDS011;5899;51.282;6.094;2023-05-07T10:22:12;2.15;;;1.95;;
11685;SDS011;5899;51.282;6.094;2023-05-07T10:24:41;2.85;;;2.00;;
11685;SDS011;5899;51.282;6.094;2023-05-07T10:27:11;2.20;;;2.00;;
11685;SDS011;5899;51.282;6.094;2023-05-07T10:29:45;1.98;;;1.80;;
11685;SDS011;5899;51.282;6.094;2023-05-07T10:32:21;2.90;;;2.10;;
11685;SDS011;5899;51.282;6.094;2023-05-07T10:34:53;1.63;;;1.48;;
11685;SDS011;5899;51.282;6.094;2023-05-07T10:37:25;2.60;;;1.50;;
11685;SDS011;5899;51.282;6.094;2023-05-07T10:39:54;1.90;;;1.67;;
